Time;durP1;ratioP1;P1;durP2;ratioP2;P2;SDS_P1;SDS_P2;PMS_P1;PMS_P2;Temp;Humidity;BMP_temperature;BMP_pressure;BME280_temperature;BME280_humidity;BME280_pressure;Samples;Min_cycle;Max_cycle;Signal;HPM_P1;HPM_P2
2022/11/12 00:02:36;;;;;;;104.17;54.90;;;;;;;;;;6196652;28;20033;-77
2022/11/12 00:05:36;;;;;;;110.10;54.67;;;;;;;;;;6197654;28;20129;-77
2022/11/12 00:08:36;;;;;;;112.77;55.47;;;;;;;;;;6198846;28;20467;-77
2022/11/12 00:11:37;;;;;;;140.53;65.87;;;;;;;;;;6178710;28;20022;-77
2022/11/12 00:14:37;;;;;;;137.48;67.65;;;;;;;;;;6196345;28;20801;-78
2022/11/12 00:17:37;;;;;;;132.68;64.75;;;;;;;;;;6197134;28;20032;-77
2022/11/12 00:20:37;;;;;;;113.57;54.63;;;;;;;;;;6179315;28;20105;-77
2022/11/12 00:23:38;;;;;;;135.65;62.10;;;;;;;;;;6196659;28;20014;-78
2022/11/12 00:26:38;;;;;;;129.75;64.43;;;;;;;;;;6179028;28;20272;-77
2022/11/12 00:29:38;;;;;;;124.60;59.95;;;;;;;;;;6197406;28;20598;-77
2022/11/12 00:32:38;;;;;;;116.67;56.17;;;;;;;;;;6196826;28;20026;-77
2022/11/12 00:35:38;;;;;;;140.90;66.25;;;;;;;;;;6196620;28;20033;-77
2022/11/12 00:38:39;;;;;;;149.83;72.53;;;;;;;;;;6194431;28;20019;-77
2022/11/12 00:41:39;;;;;;;158.77;71.57;;;;;;;;;;6178959;28;20109;-77
2022/11/12 00:44:39;;;;;;;250.03;82.67;;;;;;;;;;6195613;28;20029;-77
2022/11/12 00:47:39;;;;;;;292.50;96.90;;;;;;;;;;6196830;28;20603;-77
2022/11/12 00:50:39;;;;;;;232.30;86.28;;;;;;;;;;6195528;28;20288;-77
2022/11/12 00:53:40;;;;;;;270.45;93.20;;;;;;;;;;6195213;28;20077;-77
2022/11/12 00:56:40;;;;;;;265.38;94.45;;;;;;;;;;6196593;28;20030;-77
2022/11/12 00:59:40;;;;;;;290.23;91.03;;;;;;;;;;6196334;28;20041;-77
2022/11/12 01:02:40;;;;;;;221.07;83.65;;;;;;;;;;6195800;28;20011;-77
2022/11/12 01:05:41;;;;;;;251.37;88.30;;;;;;;;;;6195784;28;20049;-77
2022/11/12 01:08:41;;;;;;;156.75;72.60;;;;;;;;;;6198040;28;20498;-77
2022/11/12 01:11:42;;;;;;;147.30;71.60;;;;;;;;;;6196725;28;20026;-77
2022/11/12 01:14:42;;;;;;;137.13;67.47;;;;;;;;;;6201411;28;20058;-77
2022/11/12 01:17:42;;;;;;;130.95;59.75;;;;;;;;;;6199765;28;20116;-77
2022/11/12 01:20:42;;;;;;;118.77;58.33;;;;;;;;;;6200655;28;20042;-77
2022/11/12 01:23:42;;;;;;;115.72;54.85;;;;;;;;;;6201029;28;20022;-77
2022/11/12 01:26:42;;;;;;;110.47;57.63;;;;;;;;;;6200090;28;20017;-77
2022/11/12 01:29:43;;;;;;;106.20;52.92;;;;;;;;;;6200964;28;20019;-77
2022/11/12 01:32:43;;;;;;;132.05;68.20;;;;;;;;;;6182353;28;20398;-77
2022/11/12 01:35:43;;;;;;;147.35;69.40;;;;;;;;;;6199102;28;20014;-77
2022/11/12 01:38:44;;;;;;;155.75;68.97;;;;;;;;;;6200963;28;20081;-77
2022/11/12 01:41:44;;;;;;;135.67;63.67;;;;;;;;;;6180045;28;20465;-77
2022/11/12 01:44:45;;;;;;;154.43;70.13;;;;;;;;;;6181668;28;20019;-77
2022/11/12 01:47:49;;;;;;;154.40;75.90;;;;;;;;;;6199989;28;20265;-79
2022/11/12 01:50:50;;;;;;;159.02;76.28;;;;;;;;;;6200496;28;20080;-77
2022/11/12 01:53:53;;;;;;;143.18;72.88;;;;;;;;;;6198031;28;20022;-77
2022/11/12 01:56:55;;;;;;;144.00;69.38;;;;;;;;;;6182471;28;20503;-77
2022/11/12 01:59:57;;;;;;;136.73;66.40;;;;;;;;;;6178251;28;20113;-77
2022/11/12 02:02:58;;;;;;;141.38;67.95;;;;;;;;;;6200074;28;20026;-77
2022/11/12 02:06:01;;;;;;;155.63;74.40;;;;;;;;;;6199372;28;20459;-77
2022/11/12 02:09:02;;;;;;;133.23;62.22;;;;;;;;;;6182489;28;20062;-77
2022/11/12 02:12:03;;;;;;;135.10;60.22;;;;;;;;;;6180878;28;20037;-77
2022/11/12 02:15:03;;;;;;;150.40;60.83;;;;;;;;;;6198773;28;20019;-76
2022/11/12 02:18:04;;;;;;;165.98;61.38;;;;;;;;;;6198918;28;20018;-76
2022/11/12 02:21:06;;;;;;;194.10;73.13;;;;;;;;;;6199614;28;20019;-76
2022/11/12 02:24:12;;;;;;;227.15;75.30;;;;;;;;;;6183645;28;20018;-77
2022/11/12 02:27:13;;;;;;;202.95;76.03;;;;;;;;;;6195030;28;20022;-77
2022/11/12 02:30:13;;;;;;;253.50;79.43;;;;;;;;;;6199177;28;20011;-77
2022/11/12 02:33:13;;;;;;;239.87;75.10;;;;;;;;;;6182152;28;20014;-77
2022/11/12 02:36:14;;;;;;;193.40;73.77;;;;;;;;;;6199465;28;20101;-77
2022/11/12 02:39:14;;;;;;;177.15;70.40;;;;;;;;;;6197145;28;20432;-77
2022/11/12 02:42:14;;;;;;;219.00;74.40;;;;;;;;;;6181952;28;20129;-77
2022/11/12 02:45:15;;;;;;;155.90;66.15;;;;;;;;;;6198615;28;20019;-77
2022/11/12 02:48:15;;;;;;;157.77;66.37;;;;;;;;;;6180976;28;20072;-77
2022/11/12 02:51:15;;;;;;;204.88;68.18;;;;;;;;;;6197600;28;20030;-77
2022/11/12 02:54:15;;;;;;;188.68;65.80;;;;;;;;;;6198276;28;20093;-77
2022/11/12 02:57:15;;;;;;;211.20;65.38;;;;;;;;;;6198085;28;20073;-77
2022/11/12 03:00:17;;;;;;;188.77;67.97;;;;;;;;;;6197303;28;20558;-77
2022/11/12 03:03:17;;;;;;;183.32;62.92;;;;;;;;;;6198574;28;20010;-77
2022/11/12 03:06:17;;;;;;;186.75;67.50;;;;;;;;;;6198163;28;20050;-77
2022/11/12 03:09:17;;;;;;;215.20;73.33;;;;;;;;;;6197172;28;20026;-77
2022/11/12 03:12:18;;;;;;;221.97;71.40;;;;;;;;;;6199237;28;20061;-77
2022/11/12 03:15:18;;;;;;;221.00;70.90;;;;;;;;;;6180847;28;20378;-77
2022/11/12 03:18:18;;;;;;;250.90;74.83;;;;;;;;;;6197228;28;20506;-77
2022/11/12 03:21:18;;;;;;;249.88;76.75;;;;;;;;;;6196790;28;20109;-77
2022/11/12 03:24:19;;;;;;;271.70;84.37;;;;;;;;;;6197996;28;20026;-77
2022/11/12 03:27:19;;;;;;;226.68;79.18;;;;;;;;;;6198177;28;20022;-77
2022/11/12 03:30:21;;;;;;;258.25;82.47;;;;;;;;;;6197036;28;20097;-77
2022/11/12 03:33:21;;;;;;;212.32;76.35;;;;;;;;;;6196264;28;20118;-77
2022/11/12 03:36:21;;;;;;;187.94;64.74;;;;;;;;;;6197750;28;20216;-77
2022/11/12 03:39:21;;;;;;;198.13;66.78;;;;;;;;;;6195976;28;20032;-77
2022/11/12 03:42:21;;;;;;;168.88;64.25;;;;;;;;;;6196380;28;20475;-77
2022/11/12 03:45:22;;;;;;;142.03;53.73;;;;;;;;;;6197718;28;20460;-78
2022/11/12 03:48:23;;;;;;;145.47;52.53;;;;;;;;;;6195587;28;20018;-77
2022/11/12 03:51:23;;;;;;;142.68;56.45;;;;;;;;;;6197458;28;20489;-77
2022/11/12 03:54:23;;;;;;;163.30;58.00;;;;;;;;;;6197871;28;20022;-77
2022/11/12 03:57:23;;;;;;;176.15;52.85;;;;;;;;;;6196979;28;20030;-77
2022/11/12 04:00:24;;;;;;;120.70;47.50;;;;;;;;;;6197667;28;20266;-77
2022/11/12 04:03:24;;;;;;;136.02;46.25;;;;;;;;;;6197248;28;20254;-77
2022/11/12 04:09:44;;;;;;;175.98;52.30;;;;;;;;;;6198841;28;20026;-77
2022/11/12 04:22:49;;;;;;;209.35;61.97;;;;;;;;;;6177382;28;20117;-77
2022/11/12 04:32:28;;;;;;;275.00;73.20;;;;;;;;;;6196970;28;20027;-77
2022/11/12 04:35:28;;;;;;;169.20;53.40;;;;;;;;;;6178679;28;20056;-77
2022/11/12 04:38:28;;;;;;;253.93;69.90;;;;;;;;;;6196920;28;20026;-78
2022/11/12 04:45:01;;;;;;;237.63;62.63;;;;;;;;;;6199742;28;20030;-78
2022/11/12 04:48:01;;;;;;;176.23;53.10;;;;;;;;;;6181421;28;20118;-78
2022/11/12 04:51:02;;;;;;;184.33;52.47;;;;;;;;;;6200819;28;20234;-77
2022/11/12 04:54:02;;;;;;;139.33;47.70;;;;;;;;;;6183474;28;20065;-77
2022/11/12 04:57:02;;;;;;;171.13;55.67;;;;;;;;;;6200937;28;20029;-77
2022/11/12 05:00:04;;;;;;;176.25;51.10;;;;;;;;;;6184645;28;20077;-78
2022/11/12 05:03:04;;;;;;;196.30;52.47;;;;;;;;;;6182485;28;20026;-77
2022/11/12 05:06:50;;;;;;;221.52;62.70;;;;;;;;;;6200353;28;20066;-78
2022/11/12 05:09:28;;;;;;;188.57;56.75;;;;;;;;;;6200068;28;20026;-78
2022/11/12 05:12:28;;;;;;;190.93;53.00;;;;;;;;;;6201235;28;20034;-78
2022/11/12 05:15:28;;;;;;;127.63;46.72;;;;;;;;;;6200588;28;20516;-77
2022/11/12 05:18:29;;;;;;;184.73;53.90;;;;;;;;;;6200903;28;20018;-78
2022/11/12 05:24:48;;;;;;;158.23;46.15;;;;;;;;;;6200069;28;20019;-77
2022/11/12 05:27:48;;;;;;;137.30;43.95;;;;;;;;;;6200599;28;20041;-77
2022/11/12 05:30:48;;;;;;;132.68;39.90;;;;;;;;;;6200564;28;20074;-78
2022/11/12 05:33:48;;;;;;;132.20;39.15;;;;;;;;;;6182707;28;20037;-78
2022/11/12 05:36:48;;;;;;;143.23;41.53;;;;;;;;;;6200160;28;20443;-78
2022/11/12 05:39:49;;;;;;;121.18;42.75;;;;;;;;;;6183103;28;20026;-78
2022/11/12 05:42:49;;;;;;;172.57;42.72;;;;;;;;;;6196769;28;20030;-78
2022/11/12 05:45:49;;;;;;;166.20;45.00;;;;;;;;;;6197539;28;20042;-77
2022/11/12 05:48:49;;;;;;;151.30;45.55;;;;;;;;;;6179137;28;20018;-77
2022/11/12 05:51:50;;;;;;;163.53;46.03;;;;;;;;;;6199242;28;20097;-78
2022/11/12 05:54:50;;;;;;;142.82;44.78;;;;;;;;;;6199322;28;20023;-77
2022/11/12 05:57:50;;;;;;;156.52;45.50;;;;;;;;;;6180836;28;20058;-78
2022/11/12 06:00:51;;;;;;;180.73;45.57;;;;;;;;;;6199167;28;20014;-78
2022/11/12 06:03:51;;;;;;;220.88;49.95;;;;;;;;;;6198529;28;20068;-77
2022/11/12 06:06:51;;;;;;;213.10;59.63;;;;;;;;;;6181192;28;20093;-78
2022/11/12 06:09:51;;;;;;;242.25;62.10;;;;;;;;;;6198747;28;20018;-77
2022/11/12 06:12:52;;;;;;;224.48;56.10;;;;;;;;;;6199737;28;20023;-77
2022/11/12 06:15:53;;;;;;;210.40;54.27;;;;;;;;;;6198790;28;20105;-77
2022/11/12 06:18:53;;;;;;;175.03;48.17;;;;;;;;;;6181338;28;20022;-78
2022/11/12 06:21:53;;;;;;;116.55;41.55;;;;;;;;;;6198378;28;20796;-77
2022/11/12 06:24:53;;;;;;;156.90;47.08;;;;;;;;;;6181748;28;20026;-77
2022/11/12 06:27:53;;;;;;;154.98;45.47;;;;;;;;;;6179127;28;20396;-77
2022/11/12 06:30:54;;;;;;;192.50;46.73;;;;;;;;;;6181224;28;20018;-77
2022/11/12 06:33:54;;;;;;;157.33;47.50;;;;;;;;;;6198493;28;20026;-77
2022/11/12 06:36:54;;;;;;;214.63;54.17;;;;;;;;;;6199056;28;20037;-77
2022/11/12 06:39:54;;;;;;;191.25;48.42;;;;;;;;;;6199162;28;20030;-78
2022/11/12 06:42:55;;;;;;;156.07;45.50;;;;;;;;;;6197777;28;20414;-78
2022/11/12 06:45:59;;;;;;;201.93;46.30;;;;;;;;;;6199315;28;20034;-78
2022/11/12 06:49:00;;;;;;;163.48;43.75;;;;;;;;;;6198382;28;20018;-78
2022/11/12 06:52:00;;;;;;;182.80;46.78;;;;;;;;;;6198241;28;20430;-77
2022/11/12 06:55:00;;;;;;;179.22;49.08;;;;;;;;;;6197991;28;20018;-77
2022/11/12 06:58:00;;;;;;;133.82;47.78;;;;;;;;;;6196884;28;20025;-77
2022/11/12 07:01:04;;;;;;;145.58;42.00;;;;;;;;;;6197801;28;20034;-77
2022/11/12 07:04:04;;;;;;;148.77;40.22;;;;;;;;;;6198615;28;20386;-77
2022/11/12 07:07:04;;;;;;;132.48;42.83;;;;;;;;;;6179755;28;20030;-77
2022/11/12 07:10:05;;;;;;;128.18;41.75;;;;;;;;;;6193258;28;20104;-77
2022/11/12 07:13:05;;;;;;;147.85;39.80;;;;;;;;;;6179631;28;20264;-77
2022/11/12 07:16:06;;;;;;;92.95;38.67;;;;;;;;;;6197608;28;20052;-77
2022/11/12 07:19:07;;;;;;;168.60;43.22;;;;;;;;;;6195112;28;20740;-77
2022/11/12 07:22:07;;;;;;;198.43;51.58;;;;;;;;;;6195794;28;20053;-77
2022/11/12 07:25:07;;;;;;;161.14;52.44;;;;;;;;;;6196721;28;20022;-77
2022/11/12 07:28:07;;;;;;;137.20;44.10;;;;;;;;;;6196260;28;20451;-76
2022/11/12 07:31:09;;;;;;;112.36;42.02;;;;;;;;;;6197306;28;20061;-76
2022/11/12 07:34:09;;;;;;;122.80;40.53;;;;;;;;;;6196244;28;20131;-77
2022/11/12 07:37:09;;;;;;;102.90;32.35;;;;;;;;;;6196324;28;20030;-77
2022/11/12 07:40:10;;;;;;;92.63;32.63;;;;;;;;;;6176440;28;20026;-76
2022/11/12 07:43:10;;;;;;;71.60;27.83;;;;;;;;;;6190790;28;20046;-76
2022/11/12 07:46:11;;;;;;;93.18;32.22;;;;;;;;;;6194844;28;20379;-76
2022/11/12 07:49:11;;;;;;;57.30;26.60;;;;;;;;;;6191335;28;20054;-76
2022/11/12 07:52:12;;;;;;;95.93;28.67;;;;;;;;;;6194835;28;20030;-76
2022/11/12 07:55:12;;;;;;;132.75;28.85;;;;;;;;;;6193551;28;20342;-76
2022/11/12 07:58:12;;;;;;;88.75;27.58;;;;;;;;;;6195429;28;20049;-76
2022/11/12 08:01:22;;;;;;;115.25;31.75;;;;;;;;;;6195280;28;20018;-76
2022/11/12 08:04:22;;;;;;;88.60;29.90;;;;;;;;;;6192451;28;20025;-76
2022/11/12 08:07:22;;;;;;;130.23;32.90;;;;;;;;;;6190642;28;20406;-77
2022/11/12 08:10:22;;;;;;;111.50;32.70;;;;;;;;;;6192563;28;20305;-76
2022/11/12 08:13:23;;;;;;;76.87;30.17;;;;;;;;;;6194868;28;20266;-76
2022/11/12 08:16:23;;;;;;;95.18;33.88;;;;;;;;;;6194649;28;20331;-77
2022/11/12 08:19:23;;;;;;;96.57;35.80;;;;;;;;;;6197047;28;20092;-76
2022/11/12 08:22:24;;;;;;;64.72;31.48;;;;;;;;;;6200357;28;20022;-77
2022/11/12 08:25:24;;;;;;;74.60;33.17;;;;;;;;;;6199211;28;20459;-76
2022/11/12 08:28:24;;;;;;;60.15;31.38;;;;;;;;;;6196640;28;20017;-76
2022/11/12 08:31:25;;;;;;;64.70;35.73;;;;;;;;;;6198043;28;20103;-76
2022/11/12 08:34:25;;;;;;;64.90;36.53;;;;;;;;;;6182038;28;20476;-76
2022/11/12 08:37:26;;;;;;;58.28;32.70;;;;;;;;;;6197434;28;20018;-75
2022/11/12 08:40:26;;;;;;;55.83;34.90;;;;;;;;;;6196267;28;20026;-75
2022/11/12 08:43:26;;;;;;;57.80;36.70;;;;;;;;;;6197469;28;20261;-76
2022/11/12 08:46:27;;;;;;;54.00;35.87;;;;;;;;;;6196277;28;20118;-76
2022/11/12 08:49:28;;;;;;;54.43;33.73;;;;;;;;;;6193669;28;20113;-76
2022/11/12 08:52:28;;;;;;;48.17;33.47;;;;;;;;;;6198746;28;20051;-76
2022/11/12 08:55:28;;;;;;;58.25;37.97;;;;;;;;;;6201285;28;20934;-76
2022/11/12 08:58:28;;;;;;;57.53;36.80;;;;;;;;;;6200449;28;20030;-75
2022/11/12 09:01:28;;;;;;;47.00;33.63;;;;;;;;;;6199833;28;20291;-75
2022/11/12 09:04:29;;;;;;;50.83;35.33;;;;;;;;;;6199602;28;20046;-76
2022/11/12 09:07:29;;;;;;;50.42;34.45;;;;;;;;;;6196479;28;20073;-76
2022/11/12 09:10:29;;;;;;;51.03;35.67;;;;;;;;;;6197732;28;20132;-76
2022/11/12 09:13:30;;;;;;;50.47;35.77;;;;;;;;;;6198402;28;20391;-77
2022/11/12 09:16:30;;;;;;;49.87;34.30;;;;;;;;;;6197521;28;20073;-76
2022/11/12 09:19:30;;;;;;;52.93;36.10;;;;;;;;;;6199160;28;20029;-76
2022/11/12 09:22:32;;;;;;;54.05;35.28;;;;;;;;;;6198979;28;20029;-77
2022/11/12 09:25:32;;;;;;;53.97;35.53;;;;;;;;;;6198242;28;20018;-77
2022/11/12 09:28:33;;;;;;;53.67;34.17;;;;;;;;;;6197892;28;20041;-77
2022/11/12 09:31:33;;;;;;;46.83;35.33;;;;;;;;;;6198302;28;20014;-77
2022/11/12 09:34:33;;;;;;;46.50;33.60;;;;;;;;;;6198945;28;20494;-77
2022/11/12 09:37:36;;;;;;;52.43;37.57;;;;;;;;;;6198064;28;20022;-77
2022/11/12 09:40:56;;;;;;;49.20;33.75;;;;;;;;;;6181415;28;20137;-77
2022/11/12 09:44:00;;;;;;;53.88;38.50;;;;;;;;;;6166579;28;20205;-77
2022/11/12 09:47:35;;;;;;;52.50;33.65;;;;;;;;;;6177944;28;20105;-77
2022/11/12 09:50:39;;;;;;;54.35;37.72;;;;;;;;;;6079174;28;20071;-76
2022/11/12 09:53:43;;;;;;;46.00;34.33;;;;;;;;;;6197548;28;20053;-76
2022/11/12 09:56:45;;;;;;;50.13;34.60;;;;;;;;;;6196116;28;20030;-76
2022/11/12 09:59:46;;;;;;;47.00;34.15;;;;;;;;;;6197042;28;20045;-76
2022/11/12 10:02:55;;;;;;;48.03;33.10;;;;;;;;;;6197887;28;20023;-76
2022/11/12 10:05:59;;;;;;;49.97;33.67;;;;;;;;;;6197382;28;20406;-76
2022/11/12 10:09:03;;;;;;;48.15;32.60;;;;;;;;;;6180241;28;20113;-76
2022/11/12 10:19:13;;;;;;;51.88;32.67;;;;;;;;;;6193673;28;20999;-76
2022/11/12 10:22:33;;;;;;;46.55;30.52;;;;;;;;;;6180195;28;20438;-76
2022/11/12 10:25:34;;;;;;;38.17;24.92;;;;;;;;;;6195093;28;20137;-76
2022/11/12 10:28:46;;;;;;;40.10;26.10;;;;;;;;;;6197429;28;20018;-76
2022/11/12 10:31:46;;;;;;;;;;;;;;;;;;6181170;28;20026;-76
2022/11/12 10:34:46;;;;;;;33.97;21.37;;;;;;;;;;6195832;28;19949;-77
2022/11/12 10:37:52;;;;;;;33.17;22.47;;;;;;;;;;6196385;28;20265;-77
2022/11/12 10:40:52;;;;;;;33.35;22.83;;;;;;;;;;6191255;28;20105;-77
2022/11/12 10:44:03;;;;;;;40.63;26.27;;;;;;;;;;6197016;28;20415;-77
2022/11/12 10:47:12;;;;;;;33.10;22.80;;;;;;;;;;6194952;28;20026;-77
2022/11/12 10:50:24;;;;;;;32.60;20.58;;;;;;;;;;6196832;28;20026;-77
2022/11/12 10:53:35;;;;;;;32.85;21.55;;;;;;;;;;6192282;28;20034;-76
2022/11/12 10:56:35;;;;;;;30.15;19.05;;;;;;;;;;6196879;28;20113;-77
2022/11/12 10:59:35;;;;;;;31.97;18.67;;;;;;;;;;6196243;28;20026;-77
2022/11/12 11:02:35;;;;;;;29.90;18.60;;;;;;;;;;6196019;28;20378;-76
2022/11/12 11:05:37;;;;;;;26.75;15.15;;;;;;;;;;6179311;28;20161;-76
2022/11/12 11:08:39;;;;;;;26.60;15.07;;;;;;;;;;6193894;28;20038;-76
2022/11/12 11:11:50;;;;;;;21.55;14.00;;;;;;;;;;6195230;28;20022;-76
2022/11/12 11:15:07;;;;;;;20.60;9.77;;;;;;;;;;6181923;28;20031;-76
2022/11/12 11:18:09;;;;;;;17.52;9.02;;;;;;;;;;6195508;28;20029;-76
2022/11/12 11:21:19;;;;;;;17.63;9.75;;;;;;;;;;6196460;28;20497;-77
2022/11/12 11:24:37;;;;;;;17.88;10.20;;;;;;;;;;6196140;28;20046;-76
2022/11/12 11:27:40;;;;;;;18.08;8.57;;;;;;;;;;6195582;28;20511;-76
2022/11/12 11:30:50;;;;;;;17.85;10.45;;;;;;;;;;6177903;28;20040;-76
2022/11/12 11:34:10;;;;;;;20.65;10.63;;;;;;;;;;6179740;28;20030;-77
2022/11/12 11:37:29;;;;;;;15.75;8.55;;;;;;;;;;6195772;28;20109;-76
2022/11/12 11:40:36;;;;;;;18.52;9.88;;;;;;;;;;6196263;28;20479;-76
2022/11/12 11:43:56;;;;;;;16.27;9.75;;;;;;;;;;6194383;28;20438;-76
2022/11/12 11:47:04;;;;;;;20.52;9.85;;;;;;;;;;6193639;28;20022;-77
2022/11/12 11:50:18;;;;;;;17.02;10.32;;;;;;;;;;6193835;28;20394;-77
2022/11/12 11:53:37;;;;;;;18.85;11.35;;;;;;;;;;6192735;28;20468;-77
2022/11/12 11:56:40;;;;;;;16.92;9.98;;;;;;;;;;6192687;28;20544;-77
2022/11/12 11:59:52;;;;;;;19.40;10.50;;;;;;;;;;6192714;28;20546;-77
2022/11/12 12:03:05;;;;;;;18.48;10.57;;;;;;;;;;6193211;28;20485;-77
2022/11/12 12:06:23;;;;;;;17.45;10.48;;;;;;;;;;6192098;28;20444;-77
2022/11/12 12:09:28;;;;;;;21.88;10.85;;;;;;;;;;6195901;28;20046;-77
2022/11/12 12:12:34;;;;;;;17.88;10.82;;;;;;;;;;6197355;28;20022;-77
2022/11/12 12:15:55;;;;;;;20.98;12.10;;;;;;;;;;6179665;28;20034;-77
2022/11/12 12:19:01;;;;;;;20.27;11.52;;;;;;;;;;6185787;28;20039;-77
2022/11/12 12:22:04;;;;;;;22.38;10.63;;;;;;;;;;6196174;28;20073;-77
2022/11/12 12:25:25;;;;;;;19.73;10.38;;;;;;;;;;6196111;28;20104;-77
2022/11/12 12:28:34;;;;;;;19.88;9.90;;;;;;;;;;6194111;28;20030;-76
2022/11/12 12:31:36;;;;;;;17.23;9.98;;;;;;;;;;6195122;28;20057;-76
2022/11/12 12:34:38;;;;;;;15.98;9.88;;;;;;;;;;6176470;28;20018;-76
2022/11/12 12:37:44;;;;;;;15.68;9.75;;;;;;;;;;6194470;28;20050;-76
2022/11/12 12:40:50;;;;;;;20.52;10.40;;;;;;;;;;6196507;28;20386;-77
2022/11/12 12:43:53;;;;;;;24.08;12.20;;;;;;;;;;6180007;28;20486;-76
2022/11/12 12:46:56;;;;;;;14.13;8.35;;;;;;;;;;6198834;28;20513;-75
2022/11/12 12:49:57;;;;;;;17.98;11.40;;;;;;;;;;6197380;28;20034;-76
2022/11/12 12:53:01;;;;;;;20.98;10.48;;;;;;;;;;6192863;28;20030;-76
2022/11/12 12:56:03;;;;;;;15.98;9.70;;;;;;;;;;6194259;28;20052;-76
2022/11/12 12:59:16;;;;;;;18.02;10.60;;;;;;;;;;6195240;28;20051;-75
2022/11/12 13:02:22;;;;;;;15.65;8.70;;;;;;;;;;6194335;28;20026;-76
2022/11/12 13:05:23;;;;;;;14.98;9.27;;;;;;;;;;6198421;28;20078;-75
2022/11/12 13:08:23;;;;;;;;;;;;;;;;;;6202829;28;20012;-76
2022/11/12 13:12:20;;;;;;;17.60;9.65;;;;;;;;;;6200706;28;20389;-76
2022/11/12 13:15:13;;;;;;;17.13;9.10;;;;;;;;;;6198232;28;20046;-76
2022/11/12 13:18:32;;;;;;;25.38;12.75;;;;;;;;;;6193788;28;20038;-76
2022/11/12 13:21:32;;;;;;;16.98;10.10;;;;;;;;;;6198615;28;20406;-76
2022/11/12 13:24:51;;;;;;;16.03;8.40;;;;;;;;;;6199000;28;20034;-76
2022/11/12 13:27:51;;;;;;;17.35;9.55;;;;;;;;;;6198095;28;20467;-75
2022/11/12 13:30:51;;;;;;;17.20;10.88;;;;;;;;;;6199435;28;20484;-76
2022/11/12 13:33:52;;;;;;;18.73;8.47;;;;;;;;;;6196797;28;20029;-76
2022/11/12 13:36:57;;;;;;;14.47;8.97;;;;;;;;;;6196797;28;20042;-76
2022/11/12 13:40:01;;;;;;;15.40;8.48;;;;;;;;;;6196442;28;20026;-78
2022/11/12 13:43:15;;;;;;;18.80;9.75;;;;;;;;;;6197384;28;20030;-77
2022/11/12 13:46:31;;;;;;;16.35;8.57;;;;;;;;;;6195392;28;20034;-77
2022/11/12 13:49:33;;;;;;;17.55;9.20;;;;;;;;;;6193108;28;20010;-77
2022/11/12 13:52:34;;;;;;;18.00;9.50;;;;;;;;;;6179652;28;20125;-76
2022/11/12 13:55:34;;;;;;;16.63;9.73;;;;;;;;;;6181279;28;20056;-76
2022/11/12 13:58:34;;;;;;;24.63;13.40;;;;;;;;;;6198341;28;20064;-77
2022/11/12 14:01:35;;;;;;;20.07;11.50;;;;;;;;;;6201463;28;20109;-75
2022/11/12 14:04:35;;;;;;;14.70;8.50;;;;;;;;;;6181548;28;20441;-75
2022/11/12 14:07:43;;;;;;;23.73;10.33;;;;;;;;;;6181264;28;20007;-75
2022/11/12 14:10:59;;;;;;;23.65;10.60;;;;;;;;;;6179451;28;20031;-76
2022/11/12 14:14:18;;;;;;;17.38;8.85;;;;;;;;;;6198436;28;20398;-75
2022/11/12 14:17:21;;;;;;;20.75;11.65;;;;;;;;;;6199063;28;20033;-75
2022/11/12 14:20:21;;;;;;;21.23;12.73;;;;;;;;;;6199019;28;20049;-76
2022/11/12 14:23:22;;;;;;;26.33;14.20;;;;;;;;;;6199026;28;20023;-75
2022/11/12 14:26:35;;;;;;;21.97;13.13;;;;;;;;;;6176365;28;20471;-75
2022/11/12 14:29:36;;;;;;;31.58;17.42;;;;;;;;;;6195425;28;20097;-76
2022/11/12 14:32:36;;;;;;;33.17;17.17;;;;;;;;;;6180586;28;20386;-75
2022/11/12 14:35:38;;;;;;;32.43;18.77;;;;;;;;;;6198222;28;20022;-76
2022/11/12 14:38:41;;;;;;;28.77;15.93;;;;;;;;;;6197417;28;20022;-75
2022/11/12 14:41:41;;;;;;;28.58;15.85;;;;;;;;;;6196504;28;20097;-76
2022/11/12 14:44:42;;;;;;;27.30;14.57;;;;;;;;;;6195241;28;20026;-75
2022/11/12 14:47:43;;;;;;;29.17;17.53;;;;;;;;;;6195635;28;20126;-76
2022/11/12 14:50:46;;;;;;;29.67;17.48;;;;;;;;;;6179800;28;20026;-75
2022/11/12 14:53:55;;;;;;;37.00;21.92;;;;;;;;;;6183413;28;20488;-75
2022/11/12 14:56:58;;;;;;;60.25;29.70;;;;;;;;;;6194689;28;20018;-75
2022/11/12 14:59:58;;;;;;;67.13;37.85;;;;;;;;;;6184124;28;20466;-76
2022/11/12 15:03:00;;;;;;;49.33;26.37;;;;;;;;;;6199218;28;20026;-75
2022/11/12 15:06:03;;;;;;;56.47;32.05;;;;;;;;;;6181594;28;20046;-76
2022/11/12 15:09:03;;;;;;;56.50;34.33;;;;;;;;;;6181088;28;20156;-75
2022/11/12 15:12:06;;;;;;;43.90;25.30;;;;;;;;;;6199985;28;20027;-76
2022/11/12 15:15:16;;;;;;;33.08;18.98;;;;;;;;;;6198069;28;20081;-76
2022/11/12 15:18:18;;;;;;;25.48;15.23;;;;;;;;;;6198456;28;20042;-74
2022/11/12 15:21:23;;;;;;;25.38;15.07;;;;;;;;;;6200543;28;20049;-75
2022/11/12 15:24:34;;;;;;;22.60;13.13;;;;;;;;;;6194216;28;20038;-75
2022/11/12 15:27:39;;;;;;;30.92;17.15;;;;;;;;;;6194095;28;20584;-76
2022/11/12 15:30:39;;;;;;;42.30;23.38;;;;;;;;;;6198108;28;20026;-76
2022/11/12 15:33:39;;;;;;;21.13;12.07;;;;;;;;;;6195287;28;20022;-75
2022/11/12 15:36:39;;;;;;;24.03;12.23;;;;;;;;;;6197462;28;20026;-76
2022/11/12 15:39:45;;;;;;;38.37;19.13;;;;;;;;;;6197724;28;20449;-75
2022/11/12 15:42:46;;;;;;;41.03;21.15;;;;;;;;;;6179292;28;20072;-76
2022/11/12 15:45:49;;;;;;;21.20;12.47;;;;;;;;;;6195182;28;20509;-76
2022/11/12 15:48:50;;;;;;;21.35;11.98;;;;;;;;;;6180551;28;20321;-74
2022/11/12 15:51:50;;;;;;;24.58;14.13;;;;;;;;;;6195291;28;20033;-74
2022/11/12 15:54:50;;;;;;;25.20;13.47;;;;;;;;;;6176540;28;20030;-74
2022/11/12 15:57:51;;;;;;;26.33;13.53;;;;;;;;;;6195873;28;20028;-74
2022/11/12 16:00:51;;;;;;;34.20;16.63;;;;;;;;;;6174923;28;20100;-75
2022/11/12 16:03:51;;;;;;;46.03;22.37;;;;;;;;;;6194604;28;20020;-75
2022/11/12 16:06:51;;;;;;;82.15;46.28;;;;;;;;;;6196062;28;20038;-75
2022/11/12 16:09:53;;;;;;;96.17;51.37;;;;;;;;;;6178178;28;20038;-75
2022/11/12 16:12:56;;;;;;;61.92;35.10;;;;;;;;;;6197462;28;20019;-76
2022/11/12 16:15:56;;;;;;;79.72;43.92;;;;;;;;;;6188782;28;20029;-76
2022/11/12 16:18:56;;;;;;;58.42;36.03;;;;;;;;;;6194495;28;20014;-76
2022/11/12 16:21:56;;;;;;;102.68;65.43;;;;;;;;;;6194081;28;20272;-76
2022/11/12 16:24:56;;;;;;;167.40;103.43;;;;;;;;;;6194588;28;20023;-76
2022/11/12 16:27:57;;;;;;;269.70;165.68;;;;;;;;;;6178010;28;20022;-77
2022/11/12 16:30:57;;;;;;;601.05;401.67;;;;;;;;;;6195471;28;20646;-76
2022/11/12 16:33:57;;;;;;;419.27;279.80;;;;;;;;;;6197387;28;20076;-75
2022/11/12 16:36:57;;;;;;;91.87;61.20;;;;;;;;;;6196659;28;20265;-76
2022/11/12 16:39:58;;;;;;;89.57;54.78;;;;;;;;;;6199633;28;20281;-75
2022/11/12 16:42:58;;;;;;;68.95;42.20;;;;;;;;;;6203218;28;20028;-75
2022/11/12 16:45:58;;;;;;;65.48;35.90;;;;;;;;;;6199348;28;20045;-76
2022/11/12 16:48:58;;;;;;;83.00;45.83;;;;;;;;;;6197712;28;20025;-76
2022/11/12 16:51:59;;;;;;;62.38;34.33;;;;;;;;;;6196044;28;20018;-76
2022/11/12 16:54:59;;;;;;;68.37;38.13;;;;;;;;;;6183512;28;20410;-75
2022/11/12 16:57:59;;;;;;;66.75;33.03;;;;;;;;;;6202625;28;20088;-75
2022/11/12 17:00:59;;;;;;;61.60;32.38;;;;;;;;;;6204083;28;20653;-75
2022/11/12 17:04:00;;;;;;;81.13;45.05;;;;;;;;;;6200564;28;20027;-75
2022/11/12 17:07:00;;;;;;;115.87;65.33;;;;;;;;;;6198869;28;20062;-76
2022/11/12 17:10:00;;;;;;;99.63;56.63;;;;;;;;;;6200200;28;20061;-76
2022/11/12 17:13:00;;;;;;;98.32;55.47;;;;;;;;;;6198509;28;20105;-74
2022/11/12 17:16:00;;;;;;;89.22;51.97;;;;;;;;;;6198665;28;20050;-76
2022/11/12 17:19:01;;;;;;;90.85;51.55;;;;;;;;;;6198591;28;20268;-77
2022/11/12 17:22:01;;;;;;;86.60;48.53;;;;;;;;;;6198903;28;20022;-77
2022/11/12 17:25:02;;;;;;;88.07;50.53;;;;;;;;;;6183118;28;20022;-77
2022/11/12 17:28:02;;;;;;;77.35;41.92;;;;;;;;;;6201253;28;20115;-77
2022/11/12 17:31:10;;;;;;;107.47;63.17;;;;;;;;;;6199510;28;20018;-77
2022/11/12 17:34:10;;;;;;;136.50;91.30;;;;;;;;;;6201260;28;20025;-77
2022/11/12 17:37:10;;;;;;;109.90;67.22;;;;;;;;;;6200039;28;20022;-77
2022/11/12 17:40:10;;;;;;;304.84;158.30;;;;;;;;;;6200955;28;20044;-77
2022/11/12 17:43:11;;;;;;;351.65;177.02;;;;;;;;;;6199589;28;20398;-76
2022/11/12 17:46:11;;;;;;;121.95;65.68;;;;;;;;;;6182449;28;20023;-77
2022/11/12 17:52:49;;;;;;;89.85;47.63;;;;;;;;;;6196340;28;20027;-76
2022/11/12 17:55:54;;;;;;;89.38;47.10;;;;;;;;;;6197540;28;20505;-76
2022/11/12 17:58:55;;;;;;;91.55;50.88;;;;;;;;;;6195668;28;20285;-76
2022/11/12 18:01:55;;;;;;;93.70;50.50;;;;;;;;;;6197171;28;20456;-76
2022/11/12 18:04:55;;;;;;;81.32;45.92;;;;;;;;;;6197487;28;20050;-76
2022/11/12 18:07:55;;;;;;;110.50;57.58;;;;;;;;;;6194723;28;20109;-76
2022/11/12 18:10:55;;;;;;;84.63;49.63;;;;;;;;;;6196984;28;20026;-77
2022/11/12 18:13:56;;;;;;;94.23;53.47;;;;;;;;;;6208323;28;20088;-77
2022/11/12 18:16:57;;;;;;;96.10;53.93;;;;;;;;;;6196331;28;20084;-77